createdAt,value
2016-11-11T00:01:24.771Z,99344
2016-11-11T00:03:24.860Z,99339
2016-11-11T00:05:24.868Z,99341
2016-11-11T00:07:26.262Z,99341
2016-11-11T00:09:26.273Z,99339
2016-11-11T00:11:26.346Z,99340
2016-11-11T00:13:26.352Z,99339
2016-11-11T00:15:25.110Z,99341
2016-11-11T00:17:26.497Z,99344
2016-11-11T00:19:26.557Z,99342
2016-11-11T00:21:25.150Z,99345
2016-11-11T00:23:25.324Z,99344
2016-11-11T00:25:25.286Z,99349
2016-11-11T00:27:25.351Z,99348
2016-11-11T00:29:25.490Z,99354
2016-11-11T00:31:26.917Z,99351
2016-11-11T00:33:26.915Z,99352
2016-11-11T00:35:25.600Z,99357
2016-11-11T00:37:25.663Z,99355
2016-11-11T00:39:27.078Z,99363
2016-11-11T00:41:25.880Z,99360
2016-11-11T00:43:25.774Z,99363
2016-11-11T00:45:25.849Z,99370
2016-11-11T00:47:25.951Z,99367
2016-11-11T00:49:25.944Z,99366
2016-11-11T00:51:26.063Z,99366
2016-11-11T00:53:26.161Z,99367
2016-11-11T00:55:27.570Z,99370
2016-11-11T00:57:27.643Z,99367
2016-11-11T00:59:26.324Z,99366
2016-11-11T01:01:26.396Z,99370
2016-11-11T01:03:27.766Z,99372
2016-11-11T01:05:27.850Z,99373
2016-11-11T01:07:26.565Z,99376
2016-11-11T01:09:27.902Z,99373
2016-11-11T01:11:26.592Z,99378
2016-11-11T01:13:27.877Z,99380
2016-11-11T01:15:27.931Z,99378
2016-11-11T01:17:27.980Z,99377
2016-11-11T01:19:28.051Z,99376
2016-11-11T01:21:26.783Z,99378
2016-11-11T01:23:28.193Z,99385
2016-11-11T01:25:26.857Z,99389
2016-11-11T01:27:28.294Z,99395
2016-11-11T01:29:27.003Z,99399
2016-11-11T01:31:27.063Z,99402
2016-11-11T01:33:27.182Z,99405
2016-11-11T01:35:28.616Z,99403
2016-11-11T01:37:28.666Z,99407
2016-11-11T01:39:28.651Z,99411
2016-11-11T01:41:28.738Z,99413
2016-11-11T01:43:27.433Z,99419
2016-11-11T01:45:28.809Z,99420
2016-11-11T01:47:27.571Z,99421
2016-11-11T01:49:27.637Z,99424
2016-11-11T01:51:27.596Z,99423
2016-11-11T01:53:29.052Z,99424
2016-11-11T01:55:29.141Z,99425
2016-11-11T01:57:29.119Z,99426
2016-11-11T01:59:27.866Z,99430
2016-11-11T02:01:29.188Z,99431
2016-11-11T02:03:27.818Z,99435
2016-11-11T02:05:27.896Z,99434
2016-11-11T02:07:29.316Z,99440
2016-11-11T02:09:28.052Z,99441
2016-11-11T02:11:29.434Z,99444
2016-11-11T02:13:28.264Z,99446
2016-11-11T02:15:29.499Z,99445
2016-11-11T02:17:28.256Z,99444
2016-11-11T02:19:28.271Z,99449
2016-11-11T02:21:28.334Z,99457
2016-11-11T02:23:28.409Z,99459
2016-11-11T02:25:28.478Z,99461
2016-11-11T02:27:29.900Z,99463
2016-11-11T02:29:28.593Z,99464
2016-11-11T02:31:30.000Z,99464
2016-11-11T02:33:28.622Z,99464
2016-11-11T02:35:28.719Z,99461
2016-11-11T02:37:30.088Z,99468
2016-11-11T02:39:30.111Z,99473
2016-11-11T02:41:30.102Z,99477
2016-11-11T02:43:28.852Z,99480
2016-11-11T02:45:28.929Z,99481
2016-11-11T02:47:30.319Z,99486
2016-11-11T02:49:30.416Z,99481
2016-11-11T02:51:29.165Z,99487
2016-11-11T02:53:30.622Z,99488
2016-11-11T02:55:29.304Z,99490
2016-11-11T02:57:30.745Z,99494
2016-11-11T02:59:29.431Z,99495
2016-11-11T03:01:29.569Z,99498
2016-11-11T03:03:29.626Z,99500
2016-11-11T03:05:29.590Z,99502
2016-11-11T03:07:30.939Z,99504
2016-11-11T03:09:29.704Z,99505
2016-11-11T03:11:29.731Z,99511
2016-11-11T03:13:31.141Z,99512
2016-11-11T03:15:29.786Z,99517
2016-11-11T03:17:30.059Z,99519
2016-11-11T03:19:31.303Z,99523
2016-11-11T03:21:31.510Z,99527
2016-11-11T03:23:30.121Z,99529
2016-11-11T03:25:31.522Z,99528
2016-11-11T03:27:31.530Z,99532
2016-11-11T03:29:30.285Z,99530
2016-11-11T03:31:30.407Z,99535
2016-11-11T03:33:30.336Z,99541
2016-11-11T03:35:31.771Z,99547
2016-11-11T03:37:31.758Z,99551
2016-11-11T03:39:31.744Z,99560
2016-11-11T03:41:31.874Z,99563
2016-11-11T03:43:31.851Z,99567
2016-11-11T03:45:30.598Z,99573
2016-11-11T03:47:30.689Z,99573
2016-11-11T03:49:30.717Z,99579
2016-11-11T03:51:32.096Z,99583
2016-11-11T03:53:30.818Z,99591
2016-11-11T03:55:32.174Z,99594
2016-11-11T03:57:30.913Z,99599
2016-11-11T03:59:31.017Z,99602
2016-11-11T04:01:31.013Z,99605
2016-11-11T04:03:31.017Z,99608
2016-11-11T04:05:31.134Z,99608
2016-11-11T04:07:31.170Z,99617
2016-11-11T04:09:32.531Z,99620
2016-11-11T04:11:31.324Z,99624
2016-11-11T04:13:31.338Z,99628
2016-11-11T04:15:31.447Z,99633
2016-11-11T04:17:31.485Z,99635
2016-11-11T04:19:31.585Z,99641
2016-11-11T04:21:32.993Z,99640
2016-11-11T04:23:32.995Z,99646
2016-11-11T04:25:33.071Z,99651
2016-11-11T04:27:33.119Z,99657
2016-11-11T04:29:33.213Z,99657
2016-11-11T04:31:31.936Z,99665
2016-11-11T04:33:33.322Z,99665
2016-11-11T04:35:33.277Z,99672
2016-11-11T04:37:33.349Z,99675
2016-11-11T04:39:33.314Z,99680
2016-11-11T04:41:33.392Z,99681
2016-11-11T04:43:32.021Z,99691
2016-11-11T04:45:33.495Z,99703
2016-11-11T04:47:32.131Z,99696
2016-11-11T04:49:33.601Z,99711
2016-11-11T04:51:32.224Z,99717
2016-11-11T04:53:32.370Z,99718
2016-11-11T04:55:33.687Z,99725
2016-11-11T04:57:32.487Z,99732
2016-11-11T04:59:32.476Z,99735
2016-11-11T05:01:32.545Z,99737
2016-11-11T05:03:33.925Z,99747
2016-11-11T05:05:33.995Z,99755
2016-11-11T05:07:33.985Z,99751
2016-11-11T05:09:32.685Z,99761
2016-11-11T05:11:34.147Z,99767
2016-11-11T05:13:32.839Z,99774
2016-11-11T05:15:32.926Z,99781
2016-11-11T05:17:32.964Z,99787
2016-11-11T05:19:34.386Z,99789
2016-11-11T05:21:34.458Z,99792
2016-11-11T05:23:34.611Z,99801
2016-11-11T05:25:34.591Z,99800
2016-11-11T05:27:34.678Z,99801
2016-11-11T05:29:33.379Z,99809
2016-11-11T05:31:33.376Z,99804
2016-11-11T05:33:34.798Z,99810
2016-11-11T05:35:33.491Z,99815
2016-11-11T05:37:33.537Z,99821
2016-11-11T05:39:33.686Z,99828
2016-11-11T05:41:33.699Z,99830
2016-11-11T05:43:35.074Z,99834
2016-11-11T05:45:35.228Z,99839
2016-11-11T05:47:35.328Z,99844
2016-11-11T05:49:35.313Z,99854
2016-11-11T05:51:35.399Z,99856
2016-11-11T05:53:34.085Z,99864
2016-11-11T05:55:35.417Z,99866
2016-11-11T05:57:34.015Z,99879
2016-11-11T05:59:35.487Z,99881
2016-11-11T06:01:34.092Z,99886
2016-11-11T06:03:34.181Z,99893
2016-11-11T06:05:34.321Z,99892
2016-11-11T06:07:34.323Z,99902
2016-11-11T06:09:35.741Z,99903
2016-11-11T06:11:35.730Z,99909
2016-11-11T06:13:35.843Z,99913
2016-11-11T06:15:35.815Z,99911
2016-11-11T06:17:35.897Z,99922
2016-11-11T06:19:36.542Z,99928
2016-11-11T06:21:34.569Z,99931
2016-11-11T06:23:36.000Z,99934
2016-11-11T06:25:36.059Z,99938
2016-11-11T06:27:36.232Z,99947
2016-11-11T06:29:34.862Z,99950
2016-11-11T06:31:34.939Z,99962
2016-11-11T06:33:35.054Z,99960
2016-11-11T06:35:35.643Z,99966
2016-11-11T06:37:36.507Z,99972
2016-11-11T06:39:36.568Z,99979
2016-11-11T06:41:36.677Z,99982
2016-11-11T06:43:36.687Z,99993
2016-11-11T06:45:35.478Z,99993
2016-11-11T06:47:35.545Z,99999
2016-11-11T06:49:37.493Z,100011
2016-11-11T06:51:35.541Z,100019
2016-11-11T06:53:36.960Z,100025
2016-11-11T06:55:35.616Z,100033
2016-11-11T06:57:35.770Z,100033
2016-11-11T06:59:37.139Z,100045
2016-11-11T07:01:35.876Z,100040
2016-11-11T07:03:35.855Z,100057
2016-11-11T07:05:36.038Z,100064
2016-11-11T07:07:37.262Z,100070
2016-11-11T07:09:37.272Z,100077
2016-11-11T07:11:37.423Z,100083
2016-11-11T07:13:36.774Z,100087
2016-11-11T07:15:37.492Z,100092
2016-11-11T07:17:36.204Z,100096
2016-11-11T07:19:37.580Z,100097
2016-11-11T07:21:37.595Z,100101
2016-11-11T07:23:36.415Z,100104
2016-11-11T07:25:36.479Z,100112
2016-11-11T07:27:37.794Z,100117
2016-11-11T07:29:37.930Z,100127
2016-11-11T07:31:36.656Z,100128
2016-11-11T07:33:37.442Z,100143
2016-11-11T07:35:38.091Z,100147
2016-11-11T07:37:38.143Z,100158
2016-11-11T07:39:38.145Z,100162
2016-11-11T07:41:38.185Z,100164
2016-11-11T07:43:38.244Z,100171
2016-11-11T07:45:36.846Z,100174
2016-11-11T07:47:38.302Z,100184
2016-11-11T07:49:38.368Z,100188
2016-11-11T07:51:37.048Z,100200
2016-11-11T07:53:37.138Z,100205
2016-11-11T07:55:39.239Z,100209
2016-11-11T07:57:38.551Z,100209
2016-11-11T07:59:38.713Z,100214
2016-11-11T08:01:37.487Z,100219
2016-11-11T08:03:37.386Z,100229
2016-11-11T08:05:37.541Z,100239
2016-11-11T08:07:37.505Z,100239
2016-11-11T08:09:39.627Z,100242
2016-11-11T08:11:39.294Z,100239
2016-11-11T08:13:39.035Z,100247
2016-11-11T08:15:38.980Z,100252
2016-11-11T08:17:37.666Z,100258
2016-11-11T08:21:11.302Z,100267
2016-11-11T08:23:11.858Z,100274
2016-11-11T08:25:10.084Z,100274
2016-11-11T08:27:11.381Z,100269
2016-11-11T08:29:11.567Z,100274
2016-11-11T08:31:11.596Z,100273
2016-11-11T08:33:11.658Z,100282
2016-11-11T08:35:11.739Z,100279
2016-11-11T08:37:11.794Z,100291
2016-11-11T08:39:10.400Z,100296
2016-11-11T08:41:10.701Z,100294
2016-11-11T08:43:11.926Z,100301
2016-11-11T08:45:10.672Z,100308
2016-11-11T08:47:10.772Z,100306
2016-11-11T08:49:12.250Z,100316
2016-11-11T08:51:12.196Z,100318
2016-11-11T08:53:11.510Z,100325
2016-11-11T08:55:12.224Z,100332
2016-11-11T08:57:12.986Z,100331
2016-11-11T08:59:14.715Z,100342
2016-11-11T09:01:13.864Z,100347
2016-11-11T09:03:13.110Z,100356
2016-11-11T09:05:13.280Z,100360
2016-11-11T09:07:12.501Z,100371
2016-11-11T09:09:13.385Z,100376
2016-11-11T09:11:12.747Z,100376
2016-11-11T09:13:12.757Z,100382
2016-11-11T09:15:12.759Z,100383
2016-11-11T09:17:12.871Z,100391
2016-11-11T09:19:12.922Z,100397
2016-11-11T09:21:12.955Z,100405
2016-11-11T09:23:11.636Z,100412
2016-11-11T09:25:12.958Z,100412
2016-11-11T09:27:11.680Z,100413
2016-11-11T09:29:13.092Z,100417
2016-11-11T09:31:13.153Z,100419
2016-11-11T09:33:13.264Z,100429
2016-11-11T09:35:13.843Z,100429
2016-11-11T09:37:13.423Z,100434
2016-11-11T09:39:13.354Z,100442
2016-11-11T09:41:12.100Z,100452
2016-11-11T09:43:12.154Z,100453
2016-11-11T09:45:13.634Z,100456
2016-11-11T09:47:13.721Z,100458
2016-11-11T09:49:12.487Z,100462
2016-11-11T09:51:12.523Z,100471
2016-11-11T09:53:14.518Z,100481
2016-11-11T09:55:16.508Z,100485
2016-11-11T09:57:12.750Z,100490
2016-11-11T09:59:12.834Z,100488
2016-11-11T10:01:14.976Z,100489
2016-11-11T10:03:14.276Z,100497
2016-11-11T10:05:13.005Z,100503
2016-11-11T10:07:13.694Z,100503
2016-11-11T10:09:14.346Z,100505
2016-11-11T10:11:12.985Z,100511
2016-11-11T10:13:15.043Z,100509
2016-11-11T10:15:13.664Z,100520
2016-11-11T10:17:15.099Z,100514
2016-11-11T10:19:13.181Z,100519
2016-11-11T10:21:13.099Z,100518
2016-11-11T10:23:13.251Z,100523
2016-11-11T10:25:13.812Z,100520
2016-11-11T10:27:15.097Z,100529
2016-11-11T10:29:14.636Z,100529
2016-11-11T10:31:13.954Z,100534
2016-11-11T10:33:13.340Z,100534
2016-11-11T10:35:15.339Z,100536
2016-11-11T10:37:14.721Z,100539
2016-11-11T10:39:13.470Z,100540
2016-11-11T10:41:15.600Z,100542
2016-11-11T10:43:16.872Z,100553
2016-11-11T10:45:14.207Z,100548
2016-11-11T10:47:15.043Z,100551
2016-11-11T10:49:13.731Z,100553
2016-11-11T10:51:14.316Z,100558
2016-11-11T10:53:13.785Z,100567
2016-11-11T10:55:15.180Z,100569
2016-11-11T10:57:15.241Z,100579
2016-11-11T10:59:16.592Z,100571
2016-11-11T11:01:15.407Z,100584
2016-11-11T11:03:14.044Z,100577
2016-11-11T11:05:16.401Z,100582
2016-11-11T11:07:15.531Z,100579
2016-11-11T11:09:15.500Z,100580
2016-11-11T11:11:14.815Z,100575
2016-11-11T11:13:15.611Z,100575
2016-11-11T11:15:14.399Z,100574
2016-11-11T11:17:15.143Z,100579
2016-11-11T11:19:14.529Z,100587
2016-11-11T11:21:15.289Z,100592
2016-11-11T11:23:14.591Z,100588
2016-11-11T11:25:14.678Z,100583
2016-11-11T11:27:15.309Z,100596
2016-11-11T11:29:17.367Z,100602
2016-11-11T11:31:15.433Z,100604
2016-11-11T11:33:16.211Z,100600
2016-11-11T11:35:14.860Z,100601
2016-11-11T11:37:16.253Z,100603
2016-11-11T11:39:15.562Z,100599
2016-11-11T11:41:15.004Z,100611
2016-11-11T11:43:16.474Z,100617
2016-11-11T11:45:18.401Z,100617
2016-11-11T11:47:18.982Z,100618
2016-11-11T11:49:16.511Z,100627
2016-11-11T11:51:15.357Z,100635
2016-11-11T11:53:16.818Z,100640
2016-11-11T11:55:17.492Z,100643
2016-11-11T11:57:16.165Z,100651
2016-11-11T11:59:15.551Z,100654
2016-11-11T12:01:18.143Z,100662
2016-11-11T12:03:17.029Z,100654
2016-11-11T12:05:18.552Z,100662
2016-11-11T12:07:17.025Z,100661
2016-11-11T12:09:17.421Z,100664
2016-11-11T12:11:20.519Z,100664
2016-11-11T12:13:15.854Z,100673
2016-11-11T12:15:17.878Z,100680
2016-11-11T12:17:17.357Z,100682
2016-11-11T12:19:16.682Z,100685
2016-11-11T12:21:18.194Z,100692
2016-11-11T12:23:17.474Z,100699
2016-11-11T12:25:16.166Z,100709
2016-11-11T12:27:18.198Z,100705
2016-11-11T12:29:17.620Z,100706
2016-11-11T12:31:18.076Z,100706
2016-11-11T12:33:18.694Z,100709
2016-11-11T12:35:17.693Z,100713
2016-11-11T12:37:17.786Z,100716
2016-11-11T12:39:17.727Z,100722
2016-11-11T12:41:18.509Z,100718
2016-11-11T12:43:17.855Z,100721
2016-11-11T12:45:17.959Z,100717
2016-11-11T12:47:18.035Z,100720
2016-11-11T12:49:19.459Z,100722
2016-11-11T12:51:17.585Z,100726
2016-11-11T12:53:18.182Z,100723
2016-11-11T12:55:18.242Z,100731
2016-11-11T12:57:17.020Z,100728
2016-11-11T12:59:18.361Z,100736
2016-11-11T13:01:17.115Z,100731
2016-11-11T13:03:18.528Z,100733
2016-11-11T13:05:18.529Z,100735
2016-11-11T13:07:18.545Z,100722
2016-11-11T13:09:17.228Z,100725
2016-11-11T13:11:17.341Z,100732
2016-11-11T13:13:18.691Z,100723
2016-11-11T13:15:21.327Z,100729
2016-11-11T13:17:17.454Z,100731
2016-11-11T13:19:19.342Z,100741
2016-11-11T13:21:17.541Z,100742
2016-11-11T13:23:18.023Z,100751
2016-11-11T13:25:19.592Z,100755
2016-11-11T13:27:20.225Z,100759
2016-11-11T13:29:19.509Z,100770
2016-11-11T13:31:18.996Z,100774
2016-11-11T13:33:19.764Z,100779
2016-11-11T13:35:21.638Z,100778
2016-11-11T13:37:19.835Z,100781
2016-11-11T13:39:19.267Z,100785
2016-11-11T13:41:20.970Z,100782
2016-11-11T13:43:19.330Z,100789
2016-11-11T13:45:20.726Z,100790
2016-11-11T13:47:20.774Z,100793
2016-11-11T13:49:20.200Z,100794
2016-11-11T13:51:19.716Z,100796
2016-11-11T13:53:19.632Z,100809
2016-11-11T13:55:19.667Z,100807
2016-11-11T13:57:18.408Z,100813
2016-11-11T13:59:19.845Z,100815
2016-11-11T14:01:19.853Z,100825
2016-11-11T14:03:21.166Z,100825
2016-11-11T14:05:19.422Z,100831
2016-11-11T14:07:20.079Z,100830
2016-11-11T14:09:19.553Z,100835
2016-11-11T14:11:20.165Z,100840
2016-11-11T14:13:21.203Z,100839
2016-11-11T14:15:18.946Z,100843
2016-11-11T14:17:19.019Z,100847
2016-11-11T14:19:19.123Z,100846
2016-11-11T14:21:20.462Z,100849
2016-11-11T14:23:19.210Z,100857
2016-11-11T14:25:20.592Z,100856
2016-11-11T14:27:20.673Z,100861
2016-11-11T14:29:21.283Z,100861
2016-11-11T14:31:19.350Z,100867
2016-11-11T14:33:20.700Z,100875
2016-11-11T14:35:20.571Z,100883
2016-11-11T14:37:19.403Z,100882
2016-11-11T14:39:19.470Z,100901
2016-11-11T14:41:20.829Z,100896
2016-11-11T14:43:19.549Z,100893
2016-11-11T14:45:19.602Z,100898
2016-11-11T14:47:19.627Z,100892
2016-11-11T14:49:19.657Z,100900
2016-11-11T14:51:19.736Z,100903
2016-11-11T14:53:21.605Z,100911
2016-11-11T14:55:21.167Z,100909
2016-11-11T14:57:21.194Z,100911
2016-11-11T14:59:19.963Z,100913
2016-11-11T15:01:20.004Z,100914
2016-11-11T15:03:19.976Z,100921
2016-11-11T15:05:21.391Z,100927
2016-11-11T15:07:20.062Z,100934
2016-11-11T15:09:21.429Z,100937
2016-11-11T15:11:21.495Z,100938
2016-11-11T15:13:20.244Z,100937
2016-11-11T15:15:21.642Z,100936
2016-11-11T15:17:22.343Z,100932
2016-11-11T15:19:22.527Z,100929
2016-11-11T15:21:21.132Z,100937
2016-11-11T15:23:23.664Z,100937
2016-11-11T15:25:23.282Z,100938
2016-11-11T15:27:21.367Z,100947
2016-11-11T15:29:20.847Z,100947
2016-11-11T15:31:20.892Z,100949
2016-11-11T15:33:22.284Z,100953
2016-11-11T15:35:22.378Z,100960
2016-11-11T15:37:22.967Z,100966
2016-11-11T15:39:22.990Z,100972
2016-11-11T15:41:21.557Z,100973
2016-11-11T15:43:23.087Z,100975
2016-11-11T15:45:23.172Z,100984
2016-11-11T15:47:22.222Z,100988
2016-11-11T15:49:22.567Z,100992
2016-11-11T15:51:22.626Z,100994
2016-11-11T15:53:22.649Z,100993
2016-11-11T15:55:22.639Z,100990
2016-11-11T15:57:21.974Z,100995
2016-11-11T15:59:22.732Z,101002
2016-11-11T16:01:23.238Z,101000
2016-11-11T16:03:23.521Z,101001
2016-11-11T16:05:22.840Z,101004
2016-11-11T16:07:21.420Z,101000
2016-11-11T16:09:21.479Z,100999
2016-11-11T16:11:22.896Z,100996
2016-11-11T16:13:21.454Z,100999
2016-11-11T16:15:21.512Z,101004
2016-11-11T16:17:22.851Z,101004
2016-11-11T16:19:23.421Z,101008
2016-11-11T16:21:22.900Z,101010
2016-11-11T16:23:22.263Z,101017
2016-11-11T16:25:23.031Z,101024
2016-11-11T16:27:21.814Z,101025
2016-11-11T16:29:21.857Z,101035
2016-11-11T16:31:21.942Z,101047
2016-11-11T16:33:21.888Z,101051
2016-11-11T16:35:23.334Z,101051
2016-11-11T16:37:23.293Z,101057
2016-11-11T16:39:21.995Z,101055
2016-11-11T16:41:22.132Z,101059
2016-11-11T16:43:22.169Z,101062
2016-11-11T16:45:22.841Z,101068
2016-11-11T16:47:23.608Z,101070
2016-11-11T16:49:23.742Z,101071
2016-11-11T16:51:22.372Z,101077
2016-11-11T16:53:22.343Z,101082
2016-11-11T16:55:23.775Z,101082
2016-11-11T16:57:23.871Z,101081
2016-11-11T16:59:23.893Z,101086
2016-11-11T17:01:23.908Z,101085
2016-11-11T17:03:22.645Z,101089
2016-11-11T17:05:22.677Z,101095
2016-11-11T17:07:22.703Z,101099
2016-11-11T17:09:22.666Z,101100
2016-11-11T17:11:24.118Z,101103
2016-11-11T17:13:22.744Z,101103
2016-11-11T17:15:22.750Z,101107
2016-11-11T17:17:22.861Z,101095
2016-11-11T17:19:22.804Z,101093
2016-11-11T17:21:24.267Z,101095
2016-11-11T17:23:22.969Z,101097
2016-11-11T17:25:24.308Z,101095
2016-11-11T17:27:23.076Z,101098
2016-11-11T17:29:23.126Z,101101
2016-11-11T17:31:23.130Z,101100
2016-11-11T17:33:24.615Z,101104
2016-11-11T17:35:24.656Z,101107
2016-11-11T17:37:24.308Z,101108
2016-11-11T17:39:24.730Z,101112
2016-11-11T17:41:25.429Z,101111
2016-11-11T17:43:23.594Z,101117
2016-11-11T17:45:25.520Z,101120
2016-11-11T17:47:23.728Z,101120
2016-11-11T17:49:25.110Z,101125
2016-11-11T17:51:23.847Z,101126
2016-11-11T17:53:25.223Z,101134
2016-11-11T17:55:23.939Z,101130
2016-11-11T17:57:25.324Z,101135
2016-11-11T17:59:24.019Z,101144
2016-11-11T18:01:25.392Z,101146
2016-11-11T18:03:24.114Z,101148
2016-11-11T18:05:25.579Z,101151
2016-11-11T18:07:24.262Z,101151
2016-11-11T18:09:24.286Z,101158
2016-11-11T18:11:25.732Z,101156
2016-11-11T18:13:25.783Z,101160
2016-11-11T18:15:24.482Z,101158
2016-11-11T18:17:25.926Z,101161
2016-11-11T18:19:25.955Z,101158
2016-11-11T18:21:25.999Z,101163
2016-11-11T18:23:26.106Z,101158
2016-11-11T18:25:24.832Z,101157
2016-11-11T18:27:26.141Z,101162
2016-11-11T18:29:24.793Z,101166
2016-11-11T18:31:24.869Z,101171
2016-11-11T18:33:26.303Z,101173
2016-11-11T18:35:26.349Z,101176
2016-11-11T18:37:26.439Z,101186
2016-11-11T18:39:26.595Z,101191
2016-11-11T18:41:25.339Z,101196
2016-11-11T18:43:25.354Z,101204
2016-11-11T18:45:26.659Z,101202
2016-11-11T18:47:26.808Z,101209
2016-11-11T18:49:26.785Z,101208
2016-11-11T18:51:26.827Z,101206
2016-11-11T18:53:26.848Z,101204
2016-11-11T18:55:26.912Z,101200
2016-11-11T18:57:26.853Z,101199
2016-11-11T18:59:26.941Z,101204
2016-11-11T19:01:27.076Z,101208
2016-11-11T19:03:25.818Z,101214
2016-11-11T19:05:25.827Z,101212
2016-11-11T19:07:25.852Z,101215
2016-11-11T19:09:27.224Z,101215
2016-11-11T19:11:27.317Z,101220
2016-11-11T19:13:26.056Z,101220
2016-11-11T19:15:27.429Z,101218
2016-11-11T19:17:27.584Z,101221
2016-11-11T19:19:27.647Z,101217
2016-11-11T19:21:27.711Z,101218
2016-11-11T19:23:26.396Z,101217
2016-11-11T19:25:27.815Z,101214
2016-11-11T19:27:26.493Z,101211
2016-11-11T19:29:27.965Z,101217
2016-11-11T19:31:27.990Z,101221
2016-11-11T19:33:26.778Z,101217
2016-11-11T19:35:28.152Z,101220
2016-11-11T19:37:26.868Z,101220
2016-11-11T19:39:26.842Z,101226
2016-11-11T19:41:26.925Z,101221
2016-11-11T19:43:26.957Z,101213
2016-11-11T19:45:27.036Z,101211
2016-11-11T19:47:27.153Z,101217
2016-11-11T19:49:27.213Z,101220
2016-11-11T19:51:28.581Z,101217
2016-11-11T19:53:27.338Z,101216
2016-11-11T19:55:28.729Z,101219
2016-11-11T19:57:27.446Z,101219
2016-11-11T19:59:27.557Z,101222
2016-11-11T20:01:28.889Z,101224
2016-11-11T20:03:27.804Z,101223
2016-11-11T20:05:27.527Z,101224
2016-11-11T20:07:27.920Z,101222
2016-11-11T20:09:29.014Z,101219
2016-11-11T20:11:30.041Z,101224
2016-11-11T20:13:28.390Z,101222
2016-11-11T20:15:27.872Z,101225
2016-11-11T20:17:29.246Z,101226
2016-11-11T20:19:29.239Z,101231
2016-11-11T20:21:30.695Z,101230
2016-11-11T20:23:29.397Z,101232
2016-11-11T20:25:32.203Z,101237
2016-11-11T20:27:28.076Z,101239
2016-11-11T20:29:28.526Z,101238
2016-11-11T20:31:28.187Z,101244
2016-11-11T20:33:29.165Z,101245
2016-11-11T20:35:28.228Z,101246
2016-11-11T20:37:29.588Z,101252
2016-11-11T20:39:31.082Z,101250
2016-11-11T20:41:31.675Z,101250
2016-11-11T20:43:28.402Z,101253
2016-11-11T20:45:29.777Z,101264
2016-11-11T20:47:29.879Z,101261
2016-11-11T20:49:31.766Z,101257
2016-11-11T20:51:30.052Z,101259
2016-11-11T20:53:30.150Z,101254
2016-11-11T20:55:28.799Z,101259
2016-11-11T20:57:30.138Z,101266
2016-11-11T20:59:30.145Z,101264
2016-11-11T21:01:30.192Z,101262
2016-11-11T21:03:28.926Z,101257
2016-11-11T21:05:28.912Z,101257
2016-11-11T21:07:28.946Z,101260
2016-11-11T21:09:28.968Z,101266
2016-11-11T21:11:29.146Z,101269
2016-11-11T21:13:29.184Z,101271
2016-11-11T21:15:30.486Z,101270
2016-11-11T21:17:30.593Z,101270
2016-11-11T21:19:29.304Z,101275
2016-11-11T21:21:30.726Z,101277
2016-11-11T21:23:29.478Z,101273
2016-11-11T21:25:29.501Z,101277
2016-11-11T21:27:30.884Z,101272
2016-11-11T21:29:29.515Z,101272
2016-11-11T21:31:29.640Z,101275
2016-11-11T21:33:29.677Z,101269
2016-11-11T21:35:31.019Z,101275
2016-11-11T21:37:31.055Z,101273
2016-11-11T21:39:29.784Z,101275
2016-11-11T21:41:31.127Z,101280
2016-11-11T21:43:29.858Z,101278
2016-11-11T21:45:31.194Z,101280
2016-11-11T21:47:31.330Z,101281
2016-11-11T21:49:30.027Z,101280
2016-11-11T21:51:30.096Z,101281
2016-11-11T21:53:30.153Z,101271
2016-11-11T21:55:31.544Z,101272
2016-11-11T21:57:30.291Z,101276
2016-11-11T21:59:30.383Z,101267
2016-11-11T22:01:30.358Z,101270
2016-11-11T22:03:30.403Z,101268
2016-11-11T22:05:31.823Z,101268
2016-11-11T22:07:31.870Z,101261
2016-11-11T22:09:30.561Z,101263
2016-11-11T22:11:32.141Z,101262
2016-11-11T22:13:30.803Z,101264
2016-11-11T22:15:30.783Z,101269
2016-11-11T22:17:30.853Z,101270
2016-11-11T22:19:31.534Z,101278
2016-11-11T22:21:32.381Z,101280
2016-11-11T22:23:31.004Z,101286
2016-11-11T22:25:31.037Z,101286
2016-11-11T22:27:31.131Z,101284
2016-11-11T22:29:32.541Z,101286
2016-11-11T22:31:32.477Z,101284
2016-11-11T22:33:32.547Z,101283
2016-11-11T22:35:32.624Z,101282
2016-11-11T22:37:31.241Z,101277
2016-11-11T22:39:32.635Z,101278
2016-11-11T22:41:32.719Z,101270
2016-11-11T22:43:31.307Z,101266
2016-11-11T22:45:31.391Z,101264
2016-11-11T22:47:32.798Z,101262
2016-11-11T22:49:32.856Z,101262
2016-11-11T22:51:31.518Z,101262
2016-11-11T22:53:31.540Z,101266
2016-11-11T22:55:33.004Z,101264
2016-11-11T22:57:33.063Z,101268
2016-11-11T22:59:31.783Z,101266
2016-11-11T23:01:33.184Z,101267
2016-11-11T23:03:31.951Z,101267
2016-11-11T23:05:31.970Z,101270
2016-11-11T23:07:33.407Z,101265
2016-11-11T23:09:33.455Z,101267
2016-11-11T23:11:32.212Z,101262
2016-11-11T23:13:32.198Z,101263
2016-11-11T23:15:33.571Z,101261
2016-11-11T23:17:32.275Z,101261
2016-11-11T23:19:33.615Z,101261
2016-11-11T23:21:33.630Z,101260
2016-11-11T23:23:33.717Z,101259
2016-11-11T23:25:32.398Z,101261
2016-11-11T23:27:33.779Z,101263
2016-11-11T23:29:32.555Z,101255
2016-11-11T23:31:33.894Z,101261
2016-11-11T23:33:32.610Z,101262
2016-11-11T23:35:32.770Z,101256
2016-11-11T23:37:34.159Z,101258
2016-11-11T23:39:32.920Z,101260
2016-11-11T23:41:32.994Z,101260
2016-11-11T23:43:34.374Z,101257
2016-11-11T23:45:34.426Z,101259
2016-11-11T23:47:34.500Z,101258
2016-11-11T23:49:34.465Z,101260
2016-11-11T23:51:34.502Z,101261
2016-11-11T23:53:33.230Z,101265
2016-11-11T23:55:34.584Z,101261
2016-11-11T23:57:33.251Z,101253
2016-11-11T23:59:34.735Z,101253
